Time;durP1;ratioP1;P1;durP2;ratioP2;P2;SDS_P1;SDS_P2;PMS_P1;PMS_P2;Temp;Humidity;BMP_temperature;BMP_pressure;BME280_temperature;BME280_humidity;BME280_pressure;Samples;Min_cycle;Max_cycle;Signal;HPM_P1;HPM_P2
2023/03/22 00:01:29;;;;;;;4.90;1.90;;;;;;;8.77;100.00;100890.97;5042824;28;20586;-73
2023/03/22 00:03:56;;;;;;;4.95;2.00;;;;;;;8.76;100.00;100884.03;5035396;28;20095;-73
2023/03/22 00:06:22;;;;;;;3.08;1.85;;;;;;;8.74;100.00;100884.06;5036633;28;20107;-73
2023/03/22 00:08:50;;;;;;;11.20;2.10;;;;;;;8.73;100.00;100882.38;5036838;28;20037;-73
2023/03/22 00:11:16;;;;;;;8.18;1.75;;;;;;;8.74;100.00;100886.69;5036685;28;20037;-73
2023/03/22 00:13:42;;;;;;;5.70;1.75;;;;;;;8.74;100.00;100891.06;5046801;28;20263;-73
2023/03/22 00:16:09;;;;;;;6.15;1.83;;;;;;;8.74;100.00;100886.69;5032519;28;20116;-73
2023/03/22 00:18:35;;;;;;;5.43;2.03;;;;;;;8.74;100.00;100880.63;5034993;28;20104;-73
2023/03/22 00:21:00;;;;;;;5.47;1.90;;;;;;;8.75;100.00;100877.09;5037308;28;20286;-73
2023/03/22 00:23:27;;;;;;;2.83;1.55;;;;;;;8.75;100.00;100861.41;5038925;28;20056;-73
2023/03/22 00:25:53;;;;;;;3.95;2.05;;;;;;;8.74;100.00;100857.13;5038568;28;20240;-73
2023/03/22 00:28:19;;;;;;;3.30;1.45;;;;;;;8.73;100.00;100858.00;5038322;28;20041;-73
2023/03/22 00:30:59;;;;;;;3.97;1.70;;;;;;;8.74;100.00;100849.28;5037319;28;20290;-73
2023/03/22 00:33:25;;;;;;;3.47;1.40;;;;;;;8.75;100.00;100837.91;5038515;28;20367;-73
2023/03/22 00:35:52;;;;;;;2.70;1.52;;;;;;;8.74;100.00;100844.91;5037894;28;20033;-73
2023/03/22 00:38:19;;;;;;;5.55;1.70;;;;;;;8.73;100.00;100837.13;5038069;28;20042;-73
2023/03/22 00:40:45;;;;;;;7.28;2.20;;;;;;;8.72;100.00;100836.28;5038079;28;20100;-73
2023/03/22 00:43:10;;;;;;;6.18;1.92;;;;;;;8.72;100.00;100832.81;5038300;28;20377;-73
2023/03/22 00:45:36;;;;;;;9.13;2.60;;;;;;;8.69;100.00;100831.16;5037583;28;20033;-73
2023/03/22 00:48:02;;;;;;;7.57;2.38;;;;;;;8.68;100.00;100824.22;5038784;28;20037;-73
2023/03/22 00:50:28;;;;;;;4.07;1.58;;;;;;;8.68;100.00;100816.41;5038133;28;20247;-73
2023/03/22 00:52:53;;;;;;;9.30;2.20;;;;;;;8.67;100.00;100822.50;5037779;28;20045;-73
2023/03/22 00:55:19;;;;;;;6.65;2.35;;;;;;;8.65;100.00;100809.50;5038263;28;20057;-73
2023/03/22 00:57:44;;;;;;;4.72;2.15;;;;;;;8.65;100.00;100801.69;5037028;28;20041;-73
2023/03/22 01:00:14;;;;;;;4.65;1.73;;;;;;;8.65;100.00;100798.22;5038389;28;20348;-73
2023/03/22 01:02:41;;;;;;;4.82;1.98;;;;;;;8.67;100.00;100787.72;5037916;28;20379;-73
2023/03/22 01:05:08;;;;;;;3.90;1.60;;;;;;;8.69;100.00;100781.53;5038167;28;20081;-73
2023/03/22 01:07:37;;;;;;;3.38;1.40;;;;;;;8.70;100.00;100771.97;5037274;28;20303;-73
2023/03/22 01:10:02;;;;;;;;;;;;;;;8.72;100.00;100770.16;5037048;28;20036;-73
2023/03/22 01:12:28;;;;;;;2.25;1.52;;;;;;;8.71;100.00;100768.44;5037442;28;20132;-73
2023/03/22 01:14:53;;;;;;;2.58;1.27;;;;;;;8.73;100.00;100766.63;5039626;28;20041;-73
2023/03/22 01:17:18;;;;;;;1.88;1.20;;;;;;;8.71;100.00;100760.59;5056594;28;20072;-73
2023/03/22 01:19:44;;;;;;;3.80;1.85;;;;;;;8.72;100.00;100757.09;5057163;28;20352;-73
2023/03/22 01:22:09;;;;;;;2.55;1.30;;;;;;;8.72;100.00;100749.28;5057578;28;20086;-73
2023/03/22 01:24:34;;;;;;;2.40;1.20;;;;;;;8.73;100.00;100744.00;5056924;28;20029;-73
2023/03/22 01:27:00;;;;;;;7.03;1.73;;;;;;;8.73;100.00;100738.78;5056951;28;20118;-73
2023/03/22 01:29:25;;;;;;;4.68;1.73;;;;;;;8.72;100.00;100731.84;5057257;28;20329;-73
2023/03/22 01:31:51;;;;;;;5.05;1.60;;;;;;;8.72;100.00;100731.84;5039250;28;20648;-73
2023/03/22 01:34:17;;;;;;;10.07;2.42;;;;;;;8.71;100.00;100727.50;5057810;28;20332;-73
2023/03/22 01:36:43;;;;;;;4.18;1.52;;;;;;;8.71;100.00;100722.28;5057439;28;20037;-73
2023/03/22 01:39:09;;;;;;;4.57;1.90;;;;;;;8.71;100.00;100713.59;5057368;28;20348;-73
2023/03/22 01:41:36;;;;;;;2.00;1.33;;;;;;;8.72;100.00;100715.31;5056387;28;20363;-73
2023/03/22 01:44:12;;;;;;;3.03;1.40;;;;;;;8.73;100.00;100709.19;5057185;28;20041;-73
2023/03/22 01:46:40;;;;;;;3.28;1.40;;;;;;;8.74;100.00;100713.50;5056486;28;20056;-73
2023/03/22 01:49:12;;;;;;;5.38;1.70;;;;;;;8.74;100.00;100703.91;5056922;28;20099;-73
2023/03/22 01:51:39;;;;;;;2.20;1.33;;;;;;;8.75;100.00;100710.84;5056795;28;20039;-73
2023/03/22 01:54:08;;;;;;;13.68;2.92;;;;;;;8.74;100.00;100703.06;5057458;28;20048;-73
2023/03/22 01:56:38;;;;;;;8.18;2.30;;;;;;;8.73;100.00;100701.34;5056896;28;20067;-73
2023/03/22 01:59:06;;;;;;;7.30;2.72;;;;;;;8.72;100.00;100703.13;5056952;28;20112;-73
2023/03/22 02:01:33;;;;;;;5.28;2.38;;;;;;;8.73;100.00;100706.56;5057299;28;20078;-73
2023/03/22 02:04:11;;;;;;;7.18;2.50;;;;;;;8.72;100.00;100697.91;5056277;28;20045;-73
2023/03/22 02:06:37;;;;;;;5.82;2.35;;;;;;;8.73;100.00;100690.91;5056420;28;20055;-73
2023/03/22 02:09:08;;;;;;;3.53;2.60;;;;;;;8.74;100.00;100690.00;5056726;28;20037;-73
2023/03/22 02:11:37;;;;;;;2.78;2.10;;;;;;;8.74;100.00;100688.25;5056563;28;20052;-73
2023/03/22 02:14:34;;;;;;;8.15;3.90;;;;;;;8.74;100.00;100679.56;5055607;28;20045;-73
2023/03/22 02:17:15;;;;;;;4.70;2.42;;;;;;;8.75;100.00;100681.25;5044888;28;20085;-73
2023/03/22 02:19:58;;;;;;;4.00;2.85;;;;;;;8.74;100.00;100672.56;5028781;28;20045;-73
2023/03/22 02:22:38;;;;;;;9.40;3.30;;;;;;;8.74;100.00;100672.56;5045690;28;20029;-73
2023/03/22 02:25:33;;;;;;;4.03;2.78;;;;;;;8.74;100.00;100666.50;5046885;28;20048;-73
2023/03/22 02:28:12;;;;;;;4.72;3.05;;;;;;;8.74;100.00;100664.75;5036430;28;20029;-73
2023/03/22 02:30:54;;;;;;;3.70;2.88;;;;;;;8.74;100.00;100672.56;5046451;28;20047;-73
2023/03/22 02:33:45;;;;;;;13.18;4.78;;;;;;;8.73;100.00;100670.88;5028532;28;20375;-73
2023/03/22 02:36:39;;;;;;;8.98;4.78;;;;;;;8.72;100.00;100671.78;5040965;28;20329;-73
2023/03/22 02:39:05;;;;;;;4.18;3.88;;;;;;;8.72;100.00;100666.56;5043752;28;20244;-73
2023/03/22 02:41:39;;;;;;;4.10;3.72;;;;;;;8.73;100.00;100670.03;5054731;28;20385;-73
2023/03/22 02:44:15;;;;;;;4.68;3.65;;;;;;;8.73;100.00;100665.66;5028263;28;20041;-73
2023/03/22 02:46:46;;;;;;;4.10;2.90;;;;;;;8.74;100.00;100656.91;5049124;28;20034;-73
2023/03/22 02:49:20;;;;;;;4.28;3.33;;;;;;;8.75;100.00;100662.97;5045026;28;20037;-73
2023/03/22 02:51:55;;;;;;;10.63;5.10;;;;;;;8.75;100.00;100660.38;5040845;28;20044;-73
2023/03/22 02:54:27;;;;;;;6.25;4.18;;;;;;;8.74;100.00;100656.91;5037401;28;20025;-73
2023/03/22 02:57:04;;;;;;;6.28;4.57;;;;;;;8.74;100.00;100656.91;5052401;28;20036;-73
2023/03/22 02:59:33;;;;;;;7.88;4.78;;;;;;;8.74;100.00;100645.63;5026224;28;20072;-73
2023/03/22 03:02:02;;;;;;;7.75;4.72;;;;;;;8.74;100.00;100645.63;5051048;28;20090;-73
2023/03/22 03:04:31;;;;;;;4.93;4.35;;;;;;;8.75;100.00;100642.97;5043716;28;20028;-73
2023/03/22 03:07:03;;;;;;;10.52;5.57;;;;;;;8.74;100.00;100649.06;5034755;28;20041;-73
2023/03/22 03:09:29;;;;;;;6.38;5.43;;;;;;;8.73;100.00;100644.78;5038445;28;20037;-73
2023/03/22 03:11:55;;;;;;;10.50;5.88;;;;;;;8.74;100.00;100641.25;5026566;28;20332;-72
2023/03/22 03:14:29;;;;;;;9.23;5.65;;;;;;;8.75;100.00;100639.47;5047866;28;20065;-72
2023/03/22 03:17:11;;;;;;;7.78;5.65;;;;;;;8.74;100.00;100638.63;5058552;28;20421;-72
2023/03/22 03:19:43;;;;;;;7.25;5.63;;;;;;;8.73;100.00;100636.06;5058752;28;20035;-72
2023/03/22 03:22:23;;;;;;;10.02;6.22;;;;;;;8.73;100.00;100631.72;5059141;28;20240;-73
2023/03/22 03:24:56;;;;;;;10.32;6.13;;;;;;;8.72;100.00;100622.19;5059262;28;20028;-73
2023/03/22 03:27:28;;;;;;;12.88;6.28;;;;;;;8.72;100.00;100632.63;5054005;28;20408;-73
2023/03/22 03:30:01;;;;;;;6.90;6.20;;;;;;;8.72;100.00;100623.94;5041036;28;20040;-72
2023/03/22 03:32:34;;;;;;;9.10;6.43;;;;;;;8.73;100.00;100628.25;5059351;28;20037;-72
2023/03/22 03:35:24;;;;;;;10.15;6.25;;;;;;;8.73;100.00;100628.25;5059540;28;20136;-72
2023/03/22 03:38:08;;;;;;;9.15;6.90;;;;;;;8.72;100.00;100637.84;5050459;28;20285;-72
2023/03/22 03:40:39;;;;;;;11.63;7.32;;;;;;;8.73;100.00;100628.25;5058704;28;20354;-73
2023/03/22 03:43:06;;;;;;;9.35;6.80;;;;;;;8.72;100.00;100624.78;5058993;28;20088;-73
2023/03/22 03:45:33;;;;;;;17.25;7.80;;;;;;;8.70;100.00;100613.56;5058864;28;20079;-73
2023/03/22 03:48:02;;;;;;;15.70;7.72;;;;;;;8.70;100.00;100618.78;5059280;28;20346;-73
2023/03/22 03:50:28;;;;;;;7.47;6.50;;;;;;;8.70;100.00;100616.16;5055993;28;20228;-73
2023/03/22 03:52:55;;;;;;;11.05;7.15;;;;;;;8.71;100.00;100625.69;5058707;28;20037;-73
2023/03/22 03:55:21;;;;;;;11.27;7.35;;;;;;;8.71;100.00;100620.47;5058726;28;20225;-73
2023/03/22 03:57:46;;;;;;;11.13;6.55;;;;;;;8.73;100.00;100612.56;5058357;28;20079;-73
2023/03/22 04:00:13;;;;;;;11.43;7.68;;;;;;;8.72;100.00;100618.72;5041175;28;20056;-73
2023/03/22 04:02:43;;;;;;;12.75;7.60;;;;;;;8.72;100.00;100618.72;5058363;28;20037;-73
2023/03/22 04:05:10;;;;;;;12.57;8.20;;;;;;;8.71;100.00;100617.84;5058213;28;20281;-73
2023/03/22 04:07:36;;;;;;;14.50;8.40;;;;;;;8.70;100.00;100613.56;5069834;28;20190;-73
2023/03/22 04:10:02;;;;;;;10.98;7.32;;;;;;;8.69;100.00;100614.44;5058182;28;20071;-73
2023/03/22 04:12:28;;;;;;;9.10;7.13;;;;;;;8.71;100.00;100611.78;5058431;28;20064;-73
2023/03/22 04:14:54;;;;;;;11.02;7.20;;;;;;;8.71;100.00;100607.41;5058092;28;20234;-73
2023/03/22 04:17:20;;;;;;;10.32;7.18;;;;;;;8.73;100.00;100604.75;5046719;28;20140;-73
2023/03/22 04:19:46;;;;;;;7.95;5.95;;;;;;;8.73;100.00;100602.13;5040594;28;20304;-73
2023/03/22 04:22:13;;;;;;;13.48;7.63;;;;;;;8.73;100.00;100604.75;5036614;28;20045;-73
2023/03/22 04:24:40;;;;;;;12.05;7.38;;;;;;;8.74;100.00;100606.47;5044944;28;20048;-73
2023/03/22 04:27:09;;;;;;;10.90;7.20;;;;;;;8.73;100.00;100602.13;5047756;28;20051;-73
2023/03/22 04:29:35;;;;;;;10.55;6.88;;;;;;;8.72;100.00;100593.47;5044312;28;20337;-73
2023/03/22 04:32:02;;;;;;;12.20;6.97;;;;;;;8.72;100.00;100587.41;5052466;28;20060;-73
2023/03/22 04:34:28;;;;;;;14.02;7.40;;;;;;;8.73;100.00;100591.69;5043636;28;20040;-73
2023/03/22 04:36:53;;;;;;;10.05;7.07;;;;;;;8.71;100.00;100589.13;5048479;28;20213;-73
2023/03/22 04:39:19;;;;;;;16.75;6.88;;;;;;;8.70;100.00;100590.06;5050849;28;20155;-73
2023/03/22 04:41:45;;;;;;;12.00;6.63;;;;;;;8.71;100.00;100585.69;5052243;28;20044;-73
2023/03/22 04:44:10;;;;;;;9.32;6.10;;;;;;;8.72;100.00;100582.16;5046000;28;20136;-73
2023/03/22 04:46:36;;;;;;;7.88;6.00;;;;;;;8.70;100.00;100581.38;5038716;28;20072;-73
2023/03/22 04:49:05;;;;;;;9.82;6.13;;;;;;;8.69;100.00;100579.66;5038255;28;20037;-73
2023/03/22 04:51:31;;;;;;;11.75;5.68;;;;;;;8.69;100.00;100579.66;5021166;28;20320;-73
2023/03/22 04:53:56;;;;;;;15.75;6.13;;;;;;;8.69;100.00;100579.66;5042392;28;20316;-73
2023/03/22 04:56:22;;;;;;;10.13;6.35;;;;;;;8.67;100.00;100582.31;5042655;28;20328;-73
2023/03/22 04:58:47;;;;;;;12.80;5.95;;;;;;;8.67;100.00;100571.03;5043880;28;20045;-73
2023/03/22 05:01:15;;;;;;;8.85;4.88;;;;;;;8.68;100.00;100577.94;5045251;28;20062;-73
2023/03/22 05:03:41;;;;;;;9.95;5.25;;;;;;;8.68;100.00;100576.22;5055114;28;20032;-73
2023/03/22 05:06:08;;;;;;;12.27;5.57;;;;;;;8.68;100.00;100581.44;5047015;28;20065;-73
2023/03/22 05:08:34;;;;;;;11.30;5.05;;;;;;;8.67;100.00;100576.25;5050250;28;20042;-73
2023/03/22 05:11:07;;;;;;;7.38;4.68;;;;;;;8.65;100.00;100561.50;5037818;28;20107;-73
2023/03/22 05:13:32;;;;;;;14.38;5.15;;;;;;;8.67;100.00;100571.03;5044730;28;20117;-73
2023/03/22 05:15:58;;;;;;;6.60;4.90;;;;;;;8.65;100.00;100563.25;5049314;28;20413;-73
2023/03/22 05:18:25;;;;;;;11.15;4.32;;;;;;;8.67;100.00;100565.81;5056744;28;20051;-73
2023/03/22 05:20:52;;;;;;;8.48;4.70;;;;;;;8.65;100.00;100564.09;5056956;28;20091;-73
2023/03/22 05:23:19;;;;;;;5.85;4.05;;;;;;;8.66;100.00;100562.38;5057728;28;20248;-73
2023/03/22 05:25:49;;;;;;;9.18;5.00;;;;;;;8.65;100.00;100564.09;5057163;28;20360;-73
2023/03/22 05:28:18;;;;;;;6.15;4.63;;;;;;;8.64;100.00;100572.00;5057273;28;20033;-73
2023/03/22 05:30:44;;;;;;;11.38;4.55;;;;;;;8.63;100.00;100558.09;5056971;28;20060;-73
2023/03/22 05:33:10;;;;;;;4.97;3.97;;;;;;;8.62;100.00;100556.41;5057265;28;20083;-73
2023/03/22 05:35:38;;;;;;;9.38;4.03;;;;;;;8.62;100.00;100548.56;5056617;28;20045;-73
2023/03/22 05:38:05;;;;;;;11.18;4.20;;;;;;;8.61;100.00;100552.09;5057637;28;20115;-73
2023/03/22 05:40:30;;;;;;;13.63;3.83;;;;;;;8.61;100.00;100540.81;5057248;28;20335;-73
2023/03/22 05:42:56;;;;;;;9.00;3.55;;;;;;;8.61;100.00;100540.81;5056426;28;20036;-73
2023/03/22 05:45:22;;;;;;;6.18;3.28;;;;;;;8.61;100.00;100541.63;5057134;28;20059;-73
2023/03/22 05:47:49;;;;;;;10.00;3.22;;;;;;;8.60;100.00;100537.34;5056928;28;20063;-73
2023/03/22 05:50:18;;;;;;;7.78;2.88;;;;;;;8.61;100.00;100546.88;5057463;28;20041;-73
2023/03/22 05:52:44;;;;;;;6.22;2.53;;;;;;;8.62;100.00;100547.69;5056619;28;20052;-73
2023/03/22 05:55:12;;;;;;;7.68;2.78;;;;;;;8.63;100.00;100545.03;5057597;28;20032;-73
2023/03/22 05:57:38;;;;;;;7.40;2.60;;;;;;;8.63;100.00;100545.03;5055817;28;20364;-73
2023/03/22 06:00:15;;;;;;;14.15;2.97;;;;;;;8.63;100.00;100537.22;5056906;28;20043;-73
2023/03/22 06:02:46;;;;;;;8.40;2.55;;;;;;;8.61;100.00;100541.63;5056290;28;20058;-73
2023/03/22 06:05:13;;;;;;;5.68;2.50;;;;;;;8.61;100.00;100539.03;5056871;28;20294;-73
2023/03/22 06:07:39;;;;;;;6.55;2.80;;;;;;;8.61;100.00;100552.09;5056351;28;20033;-73
2023/03/22 06:10:07;;;;;;;9.93;2.35;;;;;;;8.64;100.00;100540.66;5056914;28;20299;-73
2023/03/22 06:12:33;;;;;;;22.07;3.53;;;;;;;8.64;100.00;100543.28;5056412;28;20391;-73
2023/03/22 06:14:59;;;;;;;6.70;1.80;;;;;;;8.64;100.00;100538.06;5056830;28;20021;-73
2023/03/22 06:17:24;;;;;;;10.27;2.70;;;;;;;8.63;100.00;100549.41;5056367;28;20056;-73
2023/03/22 06:19:50;;;;;;;6.10;1.80;;;;;;;8.63;100.00;100541.59;5057163;28;20186;-73
2023/03/22 06:22:17;;;;;;;8.25;2.90;;;;;;;8.65;100.00;100547.59;5057347;28;20032;-72
2023/03/22 06:24:42;;;;;;;11.73;2.30;;;;;;;8.65;100.00;100547.59;5056380;28;20355;-72
2023/03/22 06:27:08;;;;;;;6.90;2.03;;;;;;;8.64;100.00;100538.06;5057347;28;20045;-72
2023/03/22 06:29:34;;;;;;;9.10;2.25;;;;;;;8.64;100.00;100532.81;5057943;28;20252;-72
2023/03/22 06:31:59;;;;;;;19.52;2.65;;;;;;;8.64;100.00;100533.69;5061021;28;20052;-72
2023/03/22 06:34:25;;;;;;;14.73;2.92;;;;;;;8.63;100.00;100534.59;5060109;28;20092;-72
2023/03/22 06:36:52;;;;;;;6.72;2.08;;;;;;;8.64;100.00;100541.53;5060330;28;20051;-72
2023/03/22 06:39:17;;;;;;;3.70;1.80;;;;;;;8.65;100.00;100535.38;5062748;28;20064;-72
2023/03/22 06:41:43;;;;;;;12.60;2.28;;;;;;;8.67;100.00;100537.09;5059989;28;20040;-72
2023/03/22 06:44:08;;;;;;;10.52;2.33;;;;;;;8.65;100.00;100543.22;5059753;28;20098;-72
2023/03/22 06:46:34;;;;;;;9.63;1.92;;;;;;;8.67;100.00;100530.13;5059708;28;20367;-73
2023/03/22 06:48:59;;;;;;;12.98;2.38;;;;;;;8.67;100.00;100540.56;5060681;28;20231;-73
2023/03/22 06:51:24;;;;;;;10.65;2.60;;;;;;;8.68;100.00;100534.44;5060836;28;20091;-73
2023/03/22 06:53:50;;;;;;;10.30;2.47;;;;;;;8.68;100.00;100538.78;5060213;28;20021;-73
2023/03/22 06:56:16;;;;;;;5.93;2.13;;;;;;;8.69;100.00;100537.88;5060435;28;20037;-73
2023/03/22 06:58:41;;;;;;;11.15;2.28;;;;;;;8.69;100.00;100543.13;5059189;28;20040;-73
2023/03/22 07:01:06;;;;;;;7.47;2.55;;;;;;;8.71;100.00;100531.69;5059586;28;20320;-73
2023/03/22 07:03:32;;;;;;;10.60;2.88;;;;;;;8.73;100.00;100544.69;5056097;28;20029;-73
2023/03/22 07:06:06;;;;;;;9.88;2.50;;;;;;;8.74;100.00;100530.75;5060223;28;20371;-73
2023/03/22 07:08:32;;;;;;;7.28;2.28;;;;;;;8.74;100.00;100531.59;5071304;28;20350;-73
2023/03/22 07:10:57;;;;;;;6.18;1.95;;;;;;;8.75;100.00;100527.19;5051294;28;20574;-73
2023/03/22 07:13:23;;;;;;;8.80;2.03;;;;;;;8.76;100.00;100534.16;5055587;28;20059;-73
2023/03/22 07:15:48;;;;;;;6.40;1.80;;;;;;;8.76;100.00;100540.22;5057439;28;20254;-73
2023/03/22 07:18:14;;;;;;;5.35;1.88;;;;;;;8.78;100.00;100532.31;5058015;28;20037;-73
2023/03/22 07:20:40;;;;;;;11.43;2.13;;;;;;;8.80;100.00;100538.34;5057564;28;20098;-73
2023/03/22 07:23:09;;;;;;;7.85;1.95;;;;;;;8.80;100.00;100525.28;5058764;28;20037;-73
2023/03/22 07:25:35;;;;;;;11.57;2.25;;;;;;;8.81;100.00;100529.59;5057677;28;20048;-73
2023/03/22 07:28:00;;;;;;;4.57;2.03;;;;;;;8.84;100.00;100527.72;5056925;28;20032;-73
2023/03/22 07:30:26;;;;;;;10.18;2.28;;;;;;;8.86;100.00;100535.50;5056993;28;20037;-73
2023/03/22 07:32:51;;;;;;;8.48;2.92;;;;;;;8.88;100.00;100530.19;5054157;28;20252;-73
2023/03/22 07:35:17;;;;;;;5.60;2.10;;;;;;;8.89;100.00;100537.13;5058223;28;20045;-73
2023/03/22 07:37:43;;;;;;;14.65;2.05;;;;;;;8.89;100.00;100543.19;5054592;28;20049;-73
2023/03/22 07:40:09;;;;;;;8.52;2.20;;;;;;;8.90;100.00;100539.69;5057158;28;20439;-73
2023/03/22 07:42:34;;;;;;;14.07;2.67;;;;;;;8.93;100.00;100530.88;5056285;28;20088;-73
2023/03/22 07:45:00;;;;;;;8.15;2.25;;;;;;;8.93;100.00;100536.97;5056191;28;20067;-73
2023/03/22 07:47:25;;;;;;;8.18;1.98;;;;;;;8.94;100.00;100530.81;5056410;28;20130;-73
2023/03/22 07:49:51;;;;;;;7.90;2.33;;;;;;;8.94;100.00;100536.03;5057110;28;20064;-73
2023/03/22 07:52:17;;;;;;;9.18;2.22;;;;;;;8.96;100.00;100530.78;5057522;28;20033;-73
2023/03/22 07:54:42;;;;;;;10.20;1.90;;;;;;;8.96;100.00;100531.59;5056462;28;20032;-73
2023/03/22 07:57:08;;;;;;;9.80;2.22;;;;;;;8.97;100.00;100529.88;5058829;28;20036;-73
2023/03/22 07:59:33;;;;;;;9.23;2.85;;;;;;;8.95;100.00;100531.66;5038150;28;20048;-73
2023/03/22 08:01:59;;;;;;;12.25;2.30;;;;;;;8.95;100.00;100540.38;5055503;28;20037;-73
2023/03/22 08:04:25;;;;;;;7.18;1.85;;;;;;;8.97;100.00;100546.38;5054508;28;20040;-73
2023/03/22 08:06:50;;;;;;;7.53;1.83;;;;;;;8.96;100.00;100547.28;5053678;28;20048;-73
2023/03/22 08:09:16;;;;;;;9.27;2.42;;;;;;;8.96;100.00;100546.44;5057225;28;20029;-73
2023/03/22 08:11:42;;;;;;;9.85;2.05;;;;;;;8.96;100.00;100546.44;5054326;28;20217;-73
2023/03/22 08:14:08;;;;;;;14.50;2.67;;;;;;;8.97;100.00;100545.53;5056337;28;20028;-73
2023/03/22 08:16:33;;;;;;;8.38;1.85;;;;;;;8.96;100.00;100551.66;5054129;28;20037;-74
2023/03/22 08:18:59;;;;;;;9.25;2.08;;;;;;;8.95;100.00;100548.22;5049348;28;20037;-74
2023/03/22 08:21:25;;;;;;;12.15;2.50;;;;;;;8.95;100.00;100529.94;5052013;28;20529;-74
2023/03/22 08:23:51;;;;;;;8.20;2.03;;;;;;;8.96;100.00;100552.50;5055937;28;20531;-74
2023/03/22 08:26:17;;;;;;;10.88;2.72;;;;;;;8.97;100.00;100551.59;5055962;28;20048;-74
2023/03/22 08:28:43;;;;;;;3.95;2.00;;;;;;;8.96;100.00;100544.66;5055358;28;20036;-74
2023/03/22 08:31:13;;;;;;;11.10;2.67;;;;;;;8.94;100.00;100548.25;5055262;28;20048;-74
2023/03/22 08:33:39;;;;;;;4.72;2.00;;;;;;;8.94;100.00;100537.81;5053176;28;20324;-74
2023/03/22 08:36:10;;;;;;;15.38;2.90;;;;;;;8.93;100.00;100536.97;5054322;28;20024;-74
2023/03/22 08:38:36;;;;;;;8.35;2.15;;;;;;;8.94;100.00;100529.97;5054727;28;20056;-74
2023/03/22 08:41:02;;;;;;;7.88;3.05;;;;;;;8.95;100.00;100544.72;5052332;28;20036;-74
2023/03/22 08:43:28;;;;;;;9.77;2.65;;;;;;;8.92;100.00;100527.41;5056548;28;20040;-74
2023/03/22 08:45:53;;;;;;;8.68;2.60;;;;;;;8.93;100.00;100530.88;5053015;28;20060;-74
2023/03/22 08:48:19;;;;;;;8.77;2.38;;;;;;;8.92;100.00;100534.41;5053923;28;20060;-74
2023/03/22 08:50:44;;;;;;;10.80;2.80;;;;;;;8.93;100.00;100541.31;5051756;28;20336;-74
2023/03/22 08:53:10;;;;;;;8.38;2.63;;;;;;;8.92;100.00;100524.81;5051055;28;20065;-74
2023/03/22 08:55:35;;;;;;;7.57;2.22;;;;;;;8.92;100.00;100529.19;5053036;28;20305;-74
2023/03/22 08:58:02;;;;;;;7.10;2.35;;;;;;;8.92;100.00;100532.66;5055193;28;20075;-74
2023/03/22 09:00:27;;;;;;;7.07;2.00;;;;;;;8.93;100.00;100531.75;5056690;28;20370;-74
2023/03/22 09:02:53;;;;;;;6.28;2.22;;;;;;;8.94;100.00;100532.59;5056336;28;20044;-74
2023/03/22 09:05:18;;;;;;;9.52;2.60;;;;;;;8.93;100.00;100521.31;5056451;28;20033;-74
2023/03/22 09:07:44;;;;;;;11.35;2.30;;;;;;;8.93;100.00;100534.34;5055147;28;20027;-74
2023/03/22 09:10:10;;;;;;;10.93;2.95;;;;;;;8.93;100.00;100536.09;5055512;28;20040;-74
2023/03/22 09:12:36;;;;;;;7.10;2.00;;;;;;;8.94;100.00;100535.19;5054397;28;20343;-74
2023/03/22 09:15:02;;;;;;;10.93;2.45;;;;;;;8.94;100.00;100528.22;5055367;28;20033;-74
2023/03/22 09:17:28;;;;;;;9.18;2.42;;;;;;;8.94;100.00;100528.22;5052721;28;20068;-74
2023/03/22 09:19:53;;;;;;;14.07;3.30;;;;;;;8.95;100.00;100526.44;5054338;28;20049;-74
2023/03/22 09:22:19;;;;;;;9.38;2.30;;;;;;;8.94;100.00;100538.66;5055217;28;20037;-74
2023/03/22 09:24:44;;;;;;;7.32;2.13;;;;;;;8.93;100.00;100533.50;5051935;28;20104;-74
2023/03/22 09:27:10;;;;;;;12.85;2.80;;;;;;;8.93;100.00;100526.53;5056506;28;20066;-74
2023/03/22 09:29:35;;;;;;;10.20;2.63;;;;;;;8.94;100.00;100523.00;5056442;28;20037;-74
2023/03/22 09:32:00;;;;;;;8.32;2.63;;;;;;;8.95;100.00;100519.47;5039001;28;20341;-74
2023/03/22 09:34:26;;;;;;;8.18;2.95;;;;;;;8.96;100.00;100529.00;5056404;28;20063;-74
2023/03/22 09:36:52;;;;;;;10.52;3.45;;;;;;;8.97;100.00;100512.44;5056831;28;20041;-74
2023/03/22 09:39:17;;;;;;;11.10;2.92;;;;;;;8.97;100.00;100522.03;5057418;28;20036;-74
2023/03/22 09:41:52;;;;;;;9.05;3.00;;;;;;;8.98;100.00;100524.56;5056200;28;20032;-74
2023/03/22 09:44:33;;;;;;;13.98;3.38;;;;;;;9.00;100.00;100527.13;5056608;28;20225;-74
2023/03/22 09:47:01;;;;;;;11.88;3.65;;;;;;;8.98;100.00;100514.13;5056796;28;20040;-74
2023/03/22 09:49:34;;;;;;;13.80;3.10;;;;;;;9.00;100.00;100521.91;5057171;28;20419;-74
2023/03/22 09:51:59;;;;;;;11.43;3.20;;;;;;;9.00;100.00;100530.59;5056163;28;20036;-74
2023/03/22 09:54:33;;;;;;;8.00;3.33;;;;;;;8.99;100.00;100523.66;5057097;28;20075;-74
2023/03/22 09:57:14;;;;;;;6.53;2.83;;;;;;;8.99;100.00;100526.28;5056655;28;20044;-74
2023/03/22 09:59:51;;;;;;;14.40;3.13;;;;;;;8.99;100.00;100521.06;5056278;28;20267;-74
2023/03/22 10:02:45;;;;;;;13.02;3.08;;;;;;;8.97;100.00;100543.78;5039863;28;20107;-74
2023/03/22 10:05:25;;;;;;;7.13;2.63;;;;;;;8.98;100.00;100528.94;5059771;28;20063;-74
2023/03/22 10:08:16;;;;;;;6.30;2.40;;;;;;;8.98;100.00;100523.72;5059313;28;20075;-74
2023/03/22 10:10:42;;;;;;;6.72;2.58;;;;;;;9.00;100.00;100537.56;5053864;28;20044;-74
2023/03/22 10:13:12;;;;;;;11.82;2.88;;;;;;;9.00;100.00;100535.81;5060443;28;20052;-74
2023/03/22 10:15:45;;;;;;;9.18;2.67;;;;;;;9.00;100.00;100533.22;5062417;28;20040;-74
2023/03/22 10:18:17;;;;;;;9.02;2.97;;;;;;;8.99;100.00;100541.94;5061259;28;20096;-74
2023/03/22 10:21:10;;;;;;;8.10;2.50;;;;;;;9.00;100.00;100527.13;5060082;28;20028;-74
2023/03/22 10:23:40;;;;;;;9.52;2.55;;;;;;;9.00;100.00;100517.53;5029437;28;20390;-74
2023/03/22 10:26:07;;;;;;;5.78;2.38;;;;;;;9.02;100.00;100517.47;5060673;28;20078;-74
2023/03/22 10:28:33;;;;;;;7.63;2.50;;;;;;;9.02;100.00;100507.88;5057534;28;20051;-74
2023/03/22 10:30:58;;;;;;;10.20;2.80;;;;;;;9.03;100.00;100501.72;5062810;28;20038;-74
2023/03/22 10:34:01;;;;;;;12.15;3.03;;;;;;;9.06;100.00;100499.91;5060605;28;20274;-74
2023/03/22 10:36:33;;;;;;;14.70;2.85;;;;;;;9.07;100.00;100493.78;5059649;28;20087;-74
2023/03/22 10:39:11;;;;;;;5.30;2.45;;;;;;;9.09;100.00;100505.84;5059275;28;20029;-74
2023/03/22 10:41:38;;;;;;;5.43;2.30;;;;;;;9.10;100.00;100511.94;5060234;28;20087;-74
2023/03/22 10:44:05;;;;;;;10.88;2.85;;;;;;;9.11;100.00;100500.56;5058822;28;20040;-74
2023/03/22 10:46:36;;;;;;;13.52;3.13;;;;;;;9.12;100.00;100500.50;5059624;28;20374;-74
2023/03/22 10:49:04;;;;;;;7.63;2.97;;;;;;;9.13;100.00;100502.22;5059925;28;20025;-74
2023/03/22 10:52:02;;;;;;;9.77;2.40;;;;;;;9.16;100.00;100490.78;5059604;28;20113;-74
2023/03/22 10:54:29;;;;;;;10.75;2.65;;;;;;;9.16;100.00;100482.97;5039400;28;20086;-74
2023/03/22 10:56:55;;;;;;;8.00;2.55;;;;;;;9.17;100.00;100497.72;5058760;28;20024;-74
2023/03/22 10:59:42;;;;;;;3.35;2.35;;;;;;;9.19;100.00;100480.22;5042364;28;20305;-74
2023/03/22 11:02:16;;;;;;;5.35;2.60;;;;;;;9.20;100.00;100480.16;5057816;28;20045;-74
2023/03/22 11:04:47;;;;;;;14.35;2.97;;;;;;;9.22;100.00;100480.94;5059681;28;20316;-74
2023/03/22 11:07:25;;;;;;;12.85;3.55;;;;;;;9.24;100.00;100491.34;5060061;28;20040;-74
2023/03/22 11:10:08;;;;;;;7.18;2.60;;;;;;;9.27;100.00;100499.03;5059541;28;20044;-74
2023/03/22 11:12:49;;;;;;;10.57;2.60;;;;;;;9.27;100.00;100509.50;5059926;28;20029;-74
2023/03/22 11:15:35;;;;;;;7.07;3.20;;;;;;;9.28;100.00;100515.56;5059354;28;20046;-74
2023/03/22 11:18:09;;;;;;;9.20;3.33;;;;;;;9.28;100.00;100532.13;5058641;28;20081;-74
2023/03/22 11:20:34;;;;;;;8.02;2.75;;;;;;;9.29;100.00;100533.78;5056161;28;20041;-74
2023/03/22 11:23:04;;;;;;;5.55;2.60;;;;;;;9.28;100.00;100529.50;5059141;28;20244;-74
2023/03/22 11:25:35;;;;;;;7.32;2.80;;;;;;;9.28;100.00;100539.97;5058368;28;20103;-74
2023/03/22 11:28:03;;;;;;;9.10;3.25;;;;;;;9.28;100.00;100537.34;5057824;28;20340;-74
2023/03/22 11:30:30;;;;;;;13.48;3.22;;;;;;;9.26;100.00;100549.63;5058872;28;20037;-74